Time;durP1;ratioP1;P1;durP2;ratioP2;P2;SDS_P1;SDS_P2;PMS_P1;PMS_P2;Temp;Humidity;BMP_temperature;BMP_pressure;BME280_temperature;BME280_humidity;BME280_pressure;Samples;Min_cycle;Max_cycle;Signal;HPM_P1;HPM_P2
2024/03/18 00:01:34;;;;;;;1.98;1.45;;;18.60;92.20;;;;;;5034049;28;20112;-35
2024/03/18 00:04:00;;;;;;;2.90;1.67;;;18.60;92.10;;;;;;5033827;28;20032;-35
2024/03/18 00:06:25;;;;;;;1.75;1.35;;;18.60;92.20;;;;;;5033374;28;20025;-36
2024/03/18 00:08:51;;;;;;;1.73;1.35;;;18.60;92.20;;;;;;5033744;28;20392;-37
2024/03/18 00:11:17;;;;;;;2.17;1.60;;;18.60;92.20;;;;;;5033698;28;20037;-35
2024/03/18 00:13:42;;;;;;;2.88;1.52;;;18.60;92.20;;;;;;5032997;28;20064;-37
2024/03/18 00:16:08;;;;;;;2.30;1.60;;;18.60;92.20;;;;;;5033031;28;20025;-36
2024/03/18 00:18:34;;;;;;;2.00;1.55;;;18.60;92.20;;;;;;5033201;28;20029;-35
2024/03/18 00:20:59;;;;;;;2.78;1.60;;;18.60;92.20;;;;;;5033245;28;20033;-35
2024/03/18 00:23:25;;;;;;;1.98;1.30;;;18.60;92.20;;;;;;5033176;28;20055;-35
2024/03/18 00:25:51;;;;;;;1.75;1.20;;;18.60;92.60;;;;;;5032902;28;20510;-36
2024/03/18 00:28:18;;;;;;;1.90;1.48;;;18.60;92.20;;;;;;5033178;28;20025;-36
2024/03/18 00:30:45;;;;;;;2.35;1.50;;;18.60;92.20;;;;;;5032894;28;20024;-35
2024/03/18 00:33:11;;;;;;;2.58;1.60;;;18.60;92.20;;;;;;5033080;28;20029;-35
2024/03/18 00:35:37;;;;;;;2.30;1.38;;;18.50;92.20;;;;;;5032773;28;20026;-36
2024/03/18 00:38:02;;;;;;;1.90;1.33;;;18.60;92.30;;;;;;5032506;28;20059;-35
2024/03/18 00:40:28;;;;;;;1.55;1.20;;;18.50;92.20;;;;;;5032856;28;20396;-35
2024/03/18 00:42:53;;;;;;;2.13;1.58;;;18.50;92.30;;;;;;5031342;28;20033;-35
2024/03/18 00:45:20;;;;;;;1.90;1.40;;;18.50;92.30;;;;;;5032607;28;20036;-34
2024/03/18 00:47:46;;;;;;;1.88;1.20;;;18.60;92.30;;;;;;5032425;28;20021;-35
2024/03/18 00:50:12;;;;;;;1.58;1.10;;;18.50;92.30;;;;;;5032122;28;20028;-36
2024/03/18 00:52:40;;;;;;;3.33;1.60;;;18.50;92.30;;;;;;5032581;28;20022;-37
2024/03/18 00:55:10;;;;;;;1.63;1.20;;;18.50;92.30;;;;;;5032415;28;20026;-35
2024/03/18 00:57:36;;;;;;;1.33;1.23;;;18.50;92.30;;;;;;5032229;28;20644;-35
2024/03/18 01:00:06;;;;;;;2.65;1.40;;;18.50;92.70;;;;;;5032783;28;20084;-35
2024/03/18 01:02:31;;;;;;;2.10;1.35;;;18.50;92.30;;;;;;5032202;28;20080;-34
2024/03/18 01:04:57;;;;;;;1.50;1.10;;;18.50;92.30;;;;;;5032251;28;20356;-35
2024/03/18 01:07:23;;;;;;;1.50;1.20;;;18.50;92.30;;;;;;5032079;28;20023;-38
2024/03/18 01:09:49;;;;;;;1.25;1.10;;;18.50;92.40;;;;;;5031992;28;20087;-36
2024/03/18 01:12:15;;;;;;;2.63;1.52;;;18.50;92.40;;;;;;5032107;28;20057;-35
2024/03/18 01:14:40;;;;;;;2.20;1.35;;;18.50;92.40;;;;;;5032063;28;20459;-35
2024/03/18 01:17:07;;;;;;;2.13;1.20;;;18.50;92.80;;;;;;5031689;28;20029;-35
2024/03/18 01:19:33;;;;;;;1.77;1.40;;;18.50;92.40;;;;;;5032564;28;20049;-35
2024/03/18 01:21:58;;;;;;;3.38;1.30;;;18.40;92.40;;;;;;5032075;28;20112;-36
2024/03/18 01:24:24;;;;;;;2.20;1.20;;;18.50;92.40;;;;;;5031926;28;20109;-36
2024/03/18 01:26:49;;;;;;;1.88;1.40;;;18.50;92.40;;;;;;5031607;28;20029;-39
2024/03/18 01:29:15;;;;;;;2.67;1.33;;;18.40;92.40;;;;;;5031850;28;20031;-36
2024/03/18 01:31:41;;;;;;;1.65;1.17;;;18.50;92.50;;;;;;5032201;28;20108;-35
2024/03/18 01:34:10;;;;;;;1.27;1.10;;;18.40;92.40;;;;;;5031878;28;20056;-36
2024/03/18 01:36:35;;;;;;;1.60;1.05;;;18.40;92.40;;;;;;5031663;28;20026;-36
2024/03/18 01:39:01;;;;;;;1.70;1.20;;;18.40;92.40;;;;;;5030338;28;20159;-36
2024/03/18 01:41:27;;;;;;;3.63;1.20;;;18.40;92.40;;;;;;5031480;28;20361;-36
2024/03/18 01:43:52;;;;;;;2.90;1.30;;;18.40;92.40;;;;;;5031995;28;20033;-36
2024/03/18 01:46:18;;;;;;;1.27;1.17;;;18.40;92.40;;;;;;5031325;28;20025;-38
2024/03/18 01:48:47;;;;;;;1.75;1.13;;;18.40;92.50;;;;;;5031492;28;20021;-36
2024/03/18 01:51:13;;;;;;;2.85;1.60;;;18.40;92.50;;;;;;5031440;28;20108;-36
2024/03/18 01:53:41;;;;;;;3.30;1.27;;;18.40;92.50;;;;;;5031616;28;20104;-35
2024/03/18 01:56:11;;;;;;;2.50;1.20;;;18.40;92.50;;;;;;5031228;28;20032;-39
2024/03/18 01:58:38;;;;;;;2.05;1.17;;;18.40;92.50;;;;;;5031653;28;20029;-36
2024/03/18 02:01:06;;;;;;;2.15;1.50;;;18.40;92.50;;;;;;5031439;28;20491;-35
2024/03/18 02:03:31;;;;;;;1.65;1.05;;;18.40;92.50;;;;;;5031618;28;20036;-35
2024/03/18 02:05:57;;;;;;;1.52;1.10;;;18.40;92.50;;;;;;5031507;28;20030;-35
2024/03/18 02:08:23;;;;;;;1.75;1.30;;;18.40;92.50;;;;;;5031122;28;20108;-35
2024/03/18 02:10:48;;;;;;;1.52;1.10;;;18.40;92.50;;;;;;5031175;28;20412;-36
2024/03/18 02:13:15;;;;;;;1.20;1.10;;;18.40;92.50;;;;;;5031196;28;20430;-35
2024/03/18 02:15:41;;;;;;;1.30;1.10;;;18.40;92.50;;;;;;5031158;28;20473;-35
2024/03/18 02:18:07;;;;;;;1.80;1.20;;;18.40;92.50;;;;;;5029833;28;20030;-36
2024/03/18 02:20:32;;;;;;;1.90;1.10;;;18.40;92.50;;;;;;5031435;28;20033;-35
2024/03/18 02:22:58;;;;;;;1.52;1.05;;;18.40;92.50;;;;;;5031301;28;20515;-35
2024/03/18 02:25:23;;;;;;;1.30;1.10;;;18.40;92.80;;;;;;5031163;28;20029;-35
2024/03/18 02:27:49;;;;;;;1.52;1.05;;;18.40;92.80;;;;;;5030895;28;20400;-36
2024/03/18 02:30:15;;;;;;;1.90;1.20;;;18.40;92.50;;;;;;5031016;28;20473;-36
2024/03/18 02:32:44;;;;;;;1.50;1.10;;;18.40;92.50;;;;;;5031308;28;20029;-36
2024/03/18 02:35:16;;;;;;;1.92;1.20;;;18.40;92.50;;;;;;5030978;28;20025;-36
2024/03/18 02:37:42;;;;;;;1.80;1.30;;;18.40;92.50;;;;;;5033419;28;20030;-35
2024/03/18 02:40:08;;;;;;;2.58;1.20;;;18.40;92.70;;;;;;5034894;28;20017;-37
2024/03/18 02:42:37;;;;;;;1.75;1.23;;;18.40;92.50;;;;;;5034841;28;20060;-35
2024/03/18 02:45:08;;;;;;;2.88;1.00;;;18.40;92.50;;;;;;5035074;28;20100;-34
2024/03/18 02:47:37;;;;;;;1.45;0.93;;;18.40;92.50;;;;;;5034778;28;20018;-35
2024/03/18 02:50:07;;;;;;;1.70;0.98;;;18.40;92.50;;;;;;5034569;28;20072;-35
2024/03/18 02:52:35;;;;;;;1.70;1.00;;;18.40;92.50;;;;;;5034770;28;20029;-36
2024/03/18 02:55:01;;;;;;;1.65;0.95;;;18.40;92.50;;;;;;5034813;28;20399;-35
2024/03/18 02:57:27;;;;;;;1.42;1.20;;;18.40;92.50;;;;;;5034448;28;20549;-35
2024/03/18 02:59:52;;;;;;;1.20;0.90;;;18.40;92.50;;;;;;5034641;28;20117;-35
2024/03/18 03:02:18;;;;;;;1.80;0.98;;;18.40;92.60;;;;;;5033273;28;20401;-35
2024/03/18 03:04:44;;;;;;;2.50;1.00;;;18.30;92.50;;;;;;5034495;28;20025;-35
2024/03/18 03:07:10;;;;;;;1.52;1.05;;;18.40;92.60;;;;;;5034349;28;20025;-36
2024/03/18 03:09:36;;;;;;;1.60;1.10;;;18.40;92.60;;;;;;5034748;28;20103;-37
2024/03/18 03:12:02;;;;;;;2.22;1.25;;;18.40;92.60;;;;;;5034421;28;20030;-35
2024/03/18 03:14:28;;;;;;;2.05;1.30;;;18.40;92.60;;;;;;5034740;28;20021;-35
2024/03/18 03:16:55;;;;;;;2.13;1.08;;;18.30;92.50;;;;;;5034345;28;20022;-35
2024/03/18 03:19:21;;;;;;;1.60;1.20;;;18.30;92.50;;;;;;5034212;28;20024;-36
2024/03/18 03:21:47;;;;;;;1.92;1.00;;;18.30;92.50;;;;;;5034095;28;20042;-35
2024/03/18 03:24:13;;;;;;;1.67;1.20;;;18.30;92.50;;;;;;5034129;28;20026;-35
2024/03/18 03:26:38;;;;;;;1.40;1.10;;;18.30;92.50;;;;;;5034192;28;20033;-36
2024/03/18 03:29:04;;;;;;;2.05;1.25;;;18.30;92.60;;;;;;5034237;28;20120;-35
2024/03/18 03:31:30;;;;;;;2.05;1.00;;;18.30;92.60;;;;;;5033988;28;20025;-35
2024/03/18 03:33:56;;;;;;;1.65;1.08;;;18.30;92.60;;;;;;5034002;28;20358;-35
2024/03/18 03:36:21;;;;;;;1.27;0.95;;;18.30;92.60;;;;;;5033898;28;20034;-36
2024/03/18 03:38:47;;;;;;;1.70;0.93;;;18.30;92.60;;;;;;5033941;28;20028;-36
2024/03/18 03:41:13;;;;;;;1.73;0.90;;;18.30;92.60;;;;;;5033884;28;20467;-36
2024/03/18 03:43:39;;;;;;;1.60;1.02;;;18.30;92.60;;;;;;5033905;28;20056;-35
2024/03/18 03:46:06;;;;;;;1.42;1.00;;;18.30;92.60;;;;;;5032253;28;20092;-36
2024/03/18 03:48:32;;;;;;;1.33;1.13;;;18.30;92.60;;;;;;5032789;28;21130;-36
2024/03/18 03:50:57;;;;;;;2.15;1.00;;;18.30;92.60;;;;;;5033607;28;20435;-35
2024/03/18 03:53:27;;;;;;;1.65;1.00;;;18.30;92.60;;;;;;5034087;28;20315;-38
2024/03/18 03:55:57;;;;;;;1.25;1.05;;;18.30;92.60;;;;;;5033593;28;20068;-36
2024/03/18 03:58:26;;;;;;;2.00;1.00;;;18.30;92.60;;;;;;5033535;28;20029;-35
2024/03/18 04:00:52;;;;;;;2.03;1.10;;;18.30;92.70;;;;;;5033372;28;20026;-35
2024/03/18 04:03:23;;;;;;;1.27;1.10;;;18.30;92.70;;;;;;5033764;28;20079;-36
2024/03/18 04:05:51;;;;;;;1.55;1.10;;;18.30;92.70;;;;;;5033561;28;20021;-36
2024/03/18 04:08:16;;;;;;;1.17;0.98;;;18.30;92.70;;;;;;5033519;28;20018;-35
2024/03/18 04:10:42;;;;;;;1.38;1.10;;;18.20;92.70;;;;;;5033377;28;20033;-36
2024/03/18 04:13:09;;;;;;;1.67;1.02;;;18.30;92.70;;;;;;5033436;28;20378;-36
2024/03/18 04:15:35;;;;;;;1.35;1.10;;;18.30;92.70;;;;;;5033513;28;20111;-35
2024/03/18 04:18:01;;;;;;;1.15;0.80;;;18.20;92.70;;;;;;5033135;28;20539;-39
2024/03/18 04:20:27;;;;;;;1.67;0.95;;;18.20;92.70;;;;;;5032997;28;20036;-35
2024/03/18 04:22:53;;;;;;;2.78;1.05;;;18.30;92.70;;;;;;5033281;28;20061;-36
2024/03/18 04:25:21;;;;;;;2.17;1.20;;;18.30;92.70;;;;;;5032947;28;20061;-36
2024/03/18 04:27:47;;;;;;;2.30;1.02;;;18.30;92.70;;;;;;5032855;28;20088;-37
2024/03/18 04:30:19;;;;;;;1.42;1.10;;;18.30;92.70;;;;;;5032878;28;20025;-35
2024/03/18 04:32:45;;;;;;;1.35;0.88;;;18.20;92.70;;;;;;5033087;28;20018;-36
2024/03/18 04:35:11;;;;;;;1.40;1.10;;;18.20;92.70;;;;;;5033022;28;20025;-35
2024/03/18 04:37:46;;;;;;;1.30;1.10;;;18.20;92.70;;;;;;5032663;28;20075;-35
2024/03/18 04:40:16;;;;;;;1.52;0.90;;;18.20;92.70;;;;;;5032768;28;20059;-39
2024/03/18 04:42:43;;;;;;;1.77;1.00;;;18.20;92.70;;;;;;5032639;28;20574;-37
2024/03/18 04:45:10;;;;;;;1.98;1.10;;;18.20;92.70;;;;;;5032860;28;20057;-35
2024/03/18 04:47:38;;;;;;;1.42;1.08;;;18.20;92.70;;;;;;5032531;28;20025;-35
2024/03/18 04:50:11;;;;;;;1.60;1.10;;;18.20;92.70;;;;;;5032486;28;20022;-35
2024/03/18 04:52:37;;;;;;;1.20;1.10;;;18.20;92.70;;;;;;5032708;28;20087;-36
2024/03/18 04:55:03;;;;;;;2.15;1.30;;;18.20;92.80;;;;;;5032589;28;20022;-36
2024/03/18 04:57:29;;;;;;;1.90;0.90;;;18.20;92.80;;;;;;5032561;28;20464;-36
2024/03/18 04:59:55;;;;;;;2.65;0.90;;;18.20;92.80;;;;;;5032293;28;20021;-37
2024/03/18 05:02:21;;;;;;;1.88;1.30;;;18.20;92.80;;;;;;5032597;28;20105;-36
2024/03/18 05:04:48;;;;;;;1.90;1.10;;;18.20;92.80;;;;;;5032286;28;20512;-39
2024/03/18 05:07:14;;;;;;;2.08;1.15;;;18.20;92.80;;;;;;5032391;28;20443;-36
2024/03/18 05:09:40;;;;;;;2.00;1.23;;;18.20;92.80;;;;;;5031979;28;20112;-36
2024/03/18 05:12:05;;;;;;;1.25;0.82;;;18.20;92.80;;;;;;5032262;28;20115;-36
2024/03/18 05:14:31;;;;;;;2.00;1.13;;;18.20;92.80;;;;;;5032236;28;20300;-36
2024/03/18 05:16:57;;;;;;;1.38;1.10;;;18.20;92.80;;;;;;5032329;28;20030;-36
2024/03/18 05:19:23;;;;;;;1.60;1.13;;;18.20;92.80;;;;;;5032463;28;20080;-36
2024/03/18 05:21:49;;;;;;;2.33;1.10;;;18.20;92.80;;;;;;5038445;28;20030;-36
2024/03/18 05:24:15;;;;;;;1.70;0.90;;;18.20;92.80;;;;;;5035751;28;20032;-36
2024/03/18 05:26:40;;;;;;;1.33;1.00;;;18.20;92.80;;;;;;5039572;28;20026;-38
2024/03/18 05:29:06;;;;;;;1.20;1.00;;;18.20;92.80;;;;;;5038778;28;20040;-36
2024/03/18 05:31:32;;;;;;;1.85;1.00;;;18.20;92.80;;;;;;5032124;28;20473;-37
2024/03/18 05:34:01;;;;;;;1.23;1.00;;;18.20;92.80;;;;;;5032329;28;20025;-36
2024/03/18 05:36:27;;;;;;;1.40;1.00;;;18.20;92.80;;;;;;5031989;28;20017;-35
2024/03/18 05:38:53;;;;;;;2.08;1.10;;;18.20;92.80;;;;;;5031716;28;20032;-35
2024/03/18 05:41:19;;;;;;;1.67;1.10;;;18.20;92.80;;;;;;5031834;28;20029;-35
2024/03/18 05:43:44;;;;;;;1.48;1.10;;;18.20;92.80;;;;;;5032579;28;20033;-36
2024/03/18 05:46:10;;;;;;;2.15;1.13;;;18.20;92.80;;;;;;5031932;28;20071;-35
2024/03/18 05:48:36;;;;;;;2.05;1.00;;;18.20;92.80;;;;;;5031681;28;20072;-35
2024/03/18 05:51:01;;;;;;;0.80;0.77;;;18.20;92.80;;;;;;5031523;28;20021;-35
2024/03/18 05:53:27;;;;;;;2.92;1.60;;;18.20;92.80;;;;;;5031326;28;20022;-35
2024/03/18 05:55:52;;;;;;;5.22;1.77;;;18.20;92.70;;;;;;5031364;28;20021;-35
2024/03/18 05:58:18;;;;;;;3.85;1.67;;;18.20;92.70;;;;;;5031241;28;20461;-35
2024/03/18 06:00:44;;;;;;;2.53;1.65;;;18.20;92.70;;;;;;5031409;28;20053;-35
2024/03/18 06:03:09;;;;;;;2.80;1.73;;;18.20;92.70;;;;;;5031370;28;20025;-35
2024/03/18 06:05:35;;;;;;;3.30;1.60;;;18.10;92.70;;;;;;5031306;28;20087;-35
2024/03/18 06:08:00;;;;;;;6.90;1.50;;;18.10;92.70;;;;;;5031050;28;20033;-35
2024/03/18 06:10:26;;;;;;;4.07;1.70;;;18.10;92.70;;;;;;5031498;28;20071;-35
2024/03/18 06:12:52;;;;;;;2.78;1.80;;;18.10;92.70;;;;;;5030997;28;20025;-35
2024/03/18 06:15:17;;;;;;;3.30;1.90;;;18.10;92.70;;;;;;5032746;28;20026;-36
2024/03/18 06:17:43;;;;;;;2.90;1.52;;;18.10;92.80;;;;;;5031736;28;20100;-36
2024/03/18 06:20:11;;;;;;;3.15;1.83;;;18.10;93.10;;;;;;5031416;28;20381;-34
2024/03/18 06:22:37;;;;;;;3.08;1.67;;;18.10;92.80;;;;;;5031079;28;20034;-35
2024/03/18 06:27:52;;;;;;;2.55;1.50;;;18.10;92.80;;;;;;5031225;28;20592;-35
2024/03/18 06:30:18;;;;;;;3.40;1.73;;;18.10;92.90;;;;;;5031020;28;20029;-35
2024/03/18 06:32:43;;;;;;;2.88;1.50;;;18.10;92.90;;;;;;5031080;28;20049;-35
2024/03/18 06:35:09;;;;;;;2.28;1.63;;;18.10;92.90;;;;;;5030040;28;20126;-35
2024/03/18 06:37:36;;;;;;;2.70;1.60;;;18.10;92.90;;;;;;5029623;28;20029;-35
2024/03/18 06:40:06;;;;;;;2.45;1.50;;;18.10;92.90;;;;;;5031004;28;20036;-35
2024/03/18 06:42:32;;;;;;;2.95;1.52;;;18.10;92.90;;;;;;5030976;28;20033;-35
2024/03/18 06:44:58;;;;;;;2.90;1.80;;;18.10;92.90;;;;;;5030968;28;20029;-35
2024/03/18 06:47:25;;;;;;;3.28;1.65;;;18.10;92.90;;;;;;5030586;28;20039;-34
2024/03/18 06:49:51;;;;;;;2.42;1.58;;;18.00;92.90;;;;;;5031038;28;20032;-35
2024/03/18 06:52:17;;;;;;;2.55;1.70;;;18.00;92.90;;;;;;5030876;28;20052;-35
2024/03/18 06:54:43;;;;;;;2.08;1.73;;;18.00;92.90;;;;;;5030996;28;20025;-35
2024/03/18 06:57:10;;;;;;;2.88;2.22;;;18.00;92.90;;;;;;5030629;28;20033;-35
2024/03/18 06:59:36;;;;;;;3.25;2.08;;;18.00;93.00;;;;;;5031066;28;20432;-35
2024/03/18 07:02:01;;;;;;;4.28;1.92;;;18.00;93.00;;;;;;5030614;28;20473;-35
2024/03/18 07:04:27;;;;;;;3.53;1.52;;;18.10;93.00;;;;;;5030791;28;20032;-36
2024/03/18 07:06:53;;;;;;;2.30;1.67;;;18.00;93.00;;;;;;5030729;28;20104;-35
2024/03/18 07:09:19;;;;;;;1.95;1.50;;;18.00;93.00;;;;;;5030816;28;20365;-35
2024/03/18 07:11:47;;;;;;;2.88;1.60;;;18.00;93.00;;;;;;5030846;28;20100;-35
2024/03/18 07:14:16;;;;;;;1.50;1.30;;;18.00;93.00;;;;;;5030738;28;20052;-35
2024/03/18 07:16:42;;;;;;;2.20;1.33;;;18.00;93.00;;;;;;5030495;28;20420;-35
2024/03/18 07:19:07;;;;;;;2.38;1.75;;;18.00;93.00;;;;;;5030781;28;20022;-35
2024/03/18 07:21:33;;;;;;;3.25;2.15;;;18.00;93.40;;;;;;5030551;28;20105;-35
2024/03/18 07:24:00;;;;;;;2.95;1.60;;;18.00;93.00;;;;;;5031911;28;20370;-35
2024/03/18 07:26:25;;;;;;;3.92;1.80;;;18.00;93.00;;;;;;5034080;28;20056;-35
2024/03/18 07:28:51;;;;;;;2.75;1.73;;;18.00;93.10;;;;;;5033941;28;20068;-35
2024/03/18 07:31:17;;;;;;;2.13;1.55;;;18.00;93.10;;;;;;5033878;28;20025;-35
2024/03/18 07:33:42;;;;;;;3.55;1.65;;;18.00;93.10;;;;;;5034193;28;20036;-35
2024/03/18 07:36:08;;;;;;;2.95;1.70;;;18.00;93.10;;;;;;5033833;28;20024;-35
2024/03/18 07:38:34;;;;;;;3.83;1.60;;;18.00;93.10;;;;;;5033870;28;20035;-36
2024/03/18 07:41:00;;;;;;;3.55;1.80;;;18.10;93.10;;;;;;5033884;28;20032;-36
2024/03/18 07:43:26;;;;;;;2.97;1.70;;;18.10;93.20;;;;;;5033924;28;20026;-35
2024/03/18 07:45:51;;;;;;;3.95;1.90;;;18.10;93.30;;;;;;5033736;28;20395;-36
2024/03/18 07:48:17;;;;;;;4.00;1.67;;;18.10;93.50;;;;;;5033736;28;20025;-35
2024/03/18 07:50:43;;;;;;;3.88;1.63;;;18.10;93.60;;;;;;5033565;28;20033;-35
2024/03/18 07:53:08;;;;;;;3.05;1.58;;;18.10;93.60;;;;;;5033622;28;20021;-35
2024/03/18 07:55:34;;;;;;;2.95;1.75;;;18.10;93.70;;;;;;5033582;28;20040;-36
2024/03/18 07:57:59;;;;;;;4.75;1.67;;;18.10;93.80;;;;;;5033783;28;20108;-35
2024/03/18 08:00:25;;;;;;;3.88;1.58;;;18.10;93.90;;;;;;5033320;28;20483;-35
2024/03/18 08:02:51;;;;;;;2.50;1.70;;;18.10;93.90;;;;;;5033391;28;20034;-34
2024/03/18 08:05:16;;;;;;;3.33;1.65;;;18.10;94.00;;;;;;5033376;28;20056;-35
2024/03/18 08:07:42;;;;;;;3.55;1.67;;;18.10;94.00;;;;;;5033240;28;20117;-35
2024/03/18 08:10:08;;;;;;;2.25;1.80;;;18.10;94.00;;;;;;5031852;28;20121;-36
2024/03/18 08:12:33;;;;;;;2.47;1.45;;;18.20;94.10;;;;;;5033338;28;20040;-36
2024/03/18 08:14:59;;;;;;;3.35;1.75;;;18.20;94.10;;;;;;5033241;28;20025;-36
2024/03/18 08:17:25;;;;;;;1.88;1.40;;;18.20;94.20;;;;;;5033214;28;20494;-35
2024/03/18 08:19:50;;;;;;;2.97;1.75;;;18.20;94.20;;;;;;5033093;28;20059;-35
2024/03/18 08:22:17;;;;;;;3.00;1.65;;;18.20;94.20;;;;;;5033078;28;20025;-35
2024/03/18 08:24:43;;;;;;;2.75;1.60;;;18.20;94.20;;;;;;5032961;28;20054;-35
2024/03/18 08:27:09;;;;;;;2.30;1.70;;;18.20;94.20;;;;;;5032951;28;20079;-39
2024/03/18 08:29:35;;;;;;;3.15;1.80;;;18.20;94.20;;;;;;5032808;28;20022;-35
2024/03/18 08:32:01;;;;;;;2.70;1.73;;;18.20;94.30;;;;;;5032881;28;20024;-35
2024/03/18 08:34:26;;;;;;;2.63;1.58;;;18.20;94.30;;;;;;5032524;28;20018;-35
2024/03/18 08:36:52;;;;;;;2.90;1.52;;;18.20;94.30;;;;;;5032779;28;20101;-36
2024/03/18 08:39:18;;;;;;;2.83;1.75;;;18.20;94.30;;;;;;5032901;28;20392;-35
2024/03/18 08:41:45;;;;;;;2.55;1.80;;;18.20;94.30;;;;;;5037020;28;20145;-35
2024/03/18 08:44:11;;;;;;;3.20;1.75;;;18.20;94.30;;;;;;5036181;28;20477;-35
2024/03/18 08:46:36;;;;;;;2.33;1.55;;;18.20;94.40;;;;;;5032655;28;20044;-35
2024/03/18 08:49:02;;;;;;;2.45;1.38;;;18.20;94.40;;;;;;5032647;28;20035;-35
2024/03/18 08:51:28;;;;;;;2.42;1.65;;;18.20;94.40;;;;;;5032528;28;20067;-35
2024/03/18 08:53:53;;;;;;;2.53;1.70;;;18.20;94.40;;;;;;5031361;28;20028;-37
2024/03/18 08:56:21;;;;;;;3.58;1.40;;;18.20;94.40;;;;;;5031082;28;20061;-37
2024/03/18 08:58:47;;;;;;;2.15;1.60;;;18.20;94.30;;;;;;5032339;28;20052;-36
2024/03/18 09:01:13;;;;;;;3.65;1.60;;;18.20;94.40;;;;;;5032312;28;20025;-35
2024/03/18 09:03:39;;;;;;;2.42;1.48;;;18.20;94.40;;;;;;5032317;28;20022;-36
2024/03/18 09:06:04;;;;;;;3.58;1.70;;;18.20;94.40;;;;;;5032169;28;20040;-35
2024/03/18 09:08:30;;;;;;;2.15;1.40;;;18.30;94.40;;;;;;5032080;28;20021;-37
2024/03/18 09:10:56;;;;;;;2.20;1.63;;;18.30;94.40;;;;;;5032130;28;20017;-35
2024/03/18 09:13:22;;;;;;;2.58;1.92;;;18.30;94.40;;;;;;5032132;28;20022;-34
2024/03/18 09:15:49;;;;;;;1.70;1.10;;;18.30;94.40;;;;;;5032201;28;20129;-35
2024/03/18 09:18:14;;;;;;;2.67;1.40;;;18.30;94.40;;;;;;5032015;28;20473;-34
2024/03/18 09:20:40;;;;;;;2.20;1.35;;;18.30;94.40;;;;;;5032329;28;20163;-35
2024/03/18 09:23:07;;;;;;;3.30;1.40;;;18.30;94.40;;;;;;5032721;28;20034;-37
2024/03/18 09:25:34;;;;;;;2.40;1.42;;;18.30;94.40;;;;;;5032271;28;20021;-35
2024/03/18 09:28:00;;;;;;;2.55;1.50;;;18.30;94.40;;;;;;5032016;28;20040;-35
2024/03/18 09:30:26;;;;;;;3.28;1.48;;;18.30;94.40;;;;;;5031767;28;20022;-33
2024/03/18 09:32:51;;;;;;;2.53;1.65;;;18.30;94.40;;;;;;5031849;28;20017;-35
2024/03/18 09:35:17;;;;;;;2.28;1.50;;;18.30;94.40;;;;;;5031808;28;20466;-34
2024/03/18 09:37:43;;;;;;;2.42;1.52;;;18.30;94.40;;;;;;5031782;28;20484;-35
2024/03/18 09:40:10;;;;;;;2.17;1.35;;;18.30;94.40;;;;;;5031570;28;20065;-35
2024/03/18 09:42:38;;;;;;;2.33;1.40;;;18.30;94.40;;;;;;5031593;28;20064;-35
2024/03/18 09:45:05;;;;;;;2.38;1.40;;;18.30;94.40;;;;;;5031568;28;20037;-36
2024/03/18 09:47:32;;;;;;;1.80;1.40;;;18.30;94.40;;;;;;5030764;28;20022;-35
2024/03/18 09:49:57;;;;;;;2.13;1.40;;;18.30;94.40;;;;;;5031614;28;20026;-35
2024/03/18 09:52:26;;;;;;;2.17;1.48;;;18.30;94.40;;;;;;5032434;28;20435;-36
2024/03/18 09:54:52;;;;;;;3.13;1.38;;;18.30;94.40;;;;;;5032382;28;20021;-35
2024/03/18 09:57:30;;;;;;;1.95;1.40;;;18.30;94.40;;;;;;5031656;28;20037;-35
2024/03/18 09:59:55;;;;;;;1.95;1.30;;;18.30;94.40;;;;;;5031492;28;20017;-35
2024/03/18 10:02:21;;;;;;;1.77;1.45;;;18.30;94.40;;;;;;5031391;28;20492;-34
2024/03/18 10:04:47;;;;;;;1.67;1.27;;;18.30;94.40;;;;;;5029999;28;20471;-35
2024/03/18 10:07:15;;;;;;;3.53;1.58;;;18.30;94.40;;;;;;5031154;28;20500;-34
2024/03/18 10:09:46;;;;;;;1.33;1.15;;;18.30;94.40;;;;;;5031237;28;20025;-35
2024/03/18 10:12:13;;;;;;;2.30;1.30;;;18.30;94.40;;;;;;5031304;28;20064;-35
2024/03/18 10:14:39;;;;;;;2.85;1.45;;;18.30;94.30;;;;;;5031210;28;20369;-36
2024/03/18 10:17:06;;;;;;;2.38;1.58;;;18.30;94.30;;;;;;5030061;28;20496;-34
2024/03/18 10:19:32;;;;;;;2.92;1.60;;;18.30;94.30;;;;;;5031099;28;20026;-34
2024/03/18 10:21:57;;;;;;;2.03;1.33;;;18.30;94.30;;;;;;5031214;28;20030;-35
2024/03/18 10:24:23;;;;;;;1.75;1.20;;;18.30;94.40;;;;;;5031215;28;20030;-35
2024/03/18 10:26:50;;;;;;;1.83;1.20;;;18.30;94.30;;;;;;5031041;28;20032;-35
2024/03/18 10:29:16;;;;;;;1.70;1.20;;;18.30;94.30;;;;;;5030912;28;20018;-35
2024/03/18 10:31:43;;;;;;;1.23;1.02;;;18.30;94.40;;;;;;5030895;28;20018;-35
2024/03/18 10:34:19;;;;;;;1.60;1.30;;;18.40;94.40;;;;;;5031091;28;20177;-35
2024/03/18 10:36:49;;;;;;;2.28;1.20;;;18.40;94.40;;;;;;5031218;28;20380;-35
2024/03/18 10:39:28;;;;;;;2.33;1.48;;;18.40;94.50;;;;;;5031087;28;20029;-35
2024/03/18 10:42:01;;;;;;;2.40;1.30;;;18.40;94.50;;;;;;5031073;28;20029;-35
2024/03/18 10:44:30;;;;;;;1.90;1.40;;;18.40;94.50;;;;;;5030989;28;20496;-36
2024/03/18 10:46:56;;;;;;;2.15;1.50;;;18.40;94.40;;;;;;5031057;28;20030;-35
2024/03/18 10:49:21;;;;;;;2.65;1.20;;;18.40;94.40;;;;;;5031058;28;20040;-35
2024/03/18 10:51:49;;;;;;;4.18;1.50;;;18.40;94.40;;;;;;5030987;28;20104;-34
2024/03/18 10:54:16;;;;;;;1.38;1.10;;;18.40;94.40;;;;;;5031003;28;20473;-35
2024/03/18 10:56:47;;;;;;;2.38;1.20;;;18.40;94.40;;;;;;5030608;28;20061;-35
2024/03/18 10:59:18;;;;;;;1.83;1.30;;;18.40;94.40;;;;;;5034251;28;20033;-35
2024/03/18 11:01:44;;;;;;;1.70;1.17;;;18.40;94.40;;;;;;5034612;28;20025;-38
2024/03/18 11:04:24;;;;;;;1.63;1.13;;;18.40;94.40;;;;;;5034610;28;20489;-36
2024/03/18 11:06:52;;;;;;;1.95;1.10;;;18.40;94.40;;;;;;5034555;28;20041;-35
2024/03/18 11:09:19;;;;;;;1.38;0.93;;;18.40;94.40;;;;;;5034251;28;20025;-37
2024/03/18 11:11:45;;;;;;;2.05;1.40;;;18.40;94.30;;;;;;5034336;28;20026;-35
2024/03/18 11:14:13;;;;;;;3.10;1.08;;;18.40;94.30;;;;;;5034386;28;20112;-36
2024/03/18 11:16:45;;;;;;;1.98;1.10;;;18.40;94.30;;;;;;5034298;28;20561;-35
2024/03/18 11:19:20;;;;;;;1.67;1.10;;;18.40;94.40;;;;;;5034245;28;20079;-35
2024/03/18 11:22:00;;;;;;;1.30;1.20;;;18.40;94.40;;;;;;5034488;28;20064;-35
2024/03/18 11:24:27;;;;;;;1.67;1.17;;;18.40;94.30;;;;;;5034658;28;20087;-35
2024/03/18 11:26:57;;;;;;;1.75;1.30;;;18.40;94.30;;;;;;5034172;28;20025;-35
2024/03/18 11:29:31;;;;;;;1.85;1.10;;;18.40;94.40;;;;;;5034186;28;20484;-36
2024/03/18 11:32:00;;;;;;;1.77;1.15;;;18.40;94.40;;;;;;5034123;28;20017;-36
2024/03/18 11:34:27;;;;;;;1.42;1.10;;;18.40;94.40;;;;;;5034093;28;20048;-34
2024/03/18 11:36:54;;;;;;;2.50;1.30;;;18.40;94.40;;;;;;5033904;28;20083;-35
2024/03/18 11:39:22;;;;;;;1.50;0.90;;;18.40;94.40;;;;;;5033884;28;20106;-35
2024/03/18 11:41:58;;;;;;;2.35;1.45;;;18.40;94.40;;;;;;5033788;28;20021;-34
2024/03/18 11:44:23;;;;;;;1.65;1.10;;;18.40;94.40;;;;;;5033877;28;20487;-35
2024/03/18 11:46:59;;;;;;;2.35;1.10;;;18.40;94.40;;;;;;5033904;28;20073;-36
2024/03/18 11:49:25;;;;;;;1.30;1.05;;;18.40;94.40;;;;;;5033748;28;20040;-35
2024/03/18 11:51:51;;;;;;;1.60;1.02;;;18.40;94.30;;;;;;5033658;28;20014;-39
2024/03/18 11:54:17;;;;;;;4.40;1.40;;;18.40;94.30;;;;;;5033895;28;20026;-37
2024/03/18 11:56:43;;;;;;;2.60;1.40;;;18.40;94.40;;;;;;5033492;28;20029;-38
2024/03/18 11:59:14;;;;;;;2.30;1.27;;;18.40;94.50;;;;;;5033838;28;20362;-38
2024/03/18 12:01:39;;;;;;;2.33;1.20;;;18.40;94.60;;;;;;5033939;28;20033;-37
2024/03/18 12:04:05;;;;;;;2.53;1.30;;;18.40;94.60;;;;;;5037352;28;20040;-36
2024/03/18 12:06:37;;;;;;;2.53;1.25;;;18.40;94.90;;;;;;5036955;28;20033;-35
2024/03/18 12:09:04;;;;;;;2.55;1.20;;;18.40;94.50;;;;;;5032766;28;20482;-36
2024/03/18 12:11:31;;;;;;;1.95;1.25;;;18.40;94.50;;;;;;5033261;28;20021;-35
2024/03/18 12:13:57;;;;;;;2.60;1.50;;;18.40;94.40;;;;;;5033347;28;20022;-35
2024/03/18 12:16:23;;;;;;;2.95;1.50;;;18.40;94.40;;;;;;5033420;28;20029;-35
2024/03/18 12:18:48;;;;;;;2.67;1.38;;;18.40;94.30;;;;;;5033119;28;20087;-35
2024/03/18 12:21:14;;;;;;;2.40;1.05;;;18.40;94.30;;;;;;5033053;28;20061;-35
2024/03/18 12:29:19;;;;;;;2.05;1.33;;;18.40;94.20;;;;;;5033166;28;20040;-35
2024/03/18 12:31:45;;;;;;;2.75;1.33;;;18.40;94.20;;;;;;5033013;28;20022;-37
2024/03/18 12:34:11;;;;;;;1.95;1.33;;;18.40;94.20;;;;;;5032915;28;20027;-34
2024/03/18 12:36:36;;;;;;;2.22;1.27;;;18.40;94.10;;;;;;5032787;28;20068;-34
2024/03/18 12:39:10;;;;;;;1.92;1.25;;;18.40;94.10;;;;;;5032952;28;20034;-36
2024/03/18 12:41:36;;;;;;;2.08;1.40;;;18.40;94.10;;;;;;5032728;28;20036;-35
2024/03/18 12:44:02;;;;;;;1.98;1.20;;;18.50;94.10;;;;;;5032768;28;20064;-35
2024/03/18 12:46:27;;;;;;;2.13;1.17;;;18.40;94.10;;;;;;5032500;28;20087;-35
2024/03/18 12:48:53;;;;;;;2.00;1.30;;;18.50;94.10;;;;;;5032906;28;20496;-35
2024/03/18 12:51:20;;;;;;;2.28;1.20;;;18.40;94.00;;;;;;5032723;28;20435;-35
2024/03/18 12:53:50;;;;;;;2.35;1.20;;;18.50;94.00;;;;;;5032624;28;20021;-35